CW3847 La Orotava ES current weather conditions

sailwx.info

Wind from 304 at 3 knots gusting 8

Air temperature 15.0° C
Dewpoint 14.0° C

Last reported at 2018-Apr-22 17:10 UTC.
Time now 2018-Apr-22 17:47 UTC

Location: N 28°23' W 016°31'.
View on Google Maps.

See reports from other nearby stations

  
Tides and Currents Weather Stations Pressure Air Temp Water Temp Dewpoint Dewpoint Depression Visibility Wind Speed Wind Dir Waves Ship Positions
date/time (UTC)wind fromknots sea level pressurealtimeterstation pressurevisibilityair tempwater tempwave heightnotes
2018-Apr-22 17:10 304 3 gusting 8 15.0
2018-Apr-22 17:05 317 4 gusting 8 15.0
2018-Apr-22 17:00 329 5 gusting 8 15.6
2018-Apr-22 16:55 333 5 gusting 8 15.0
2018-Apr-22 16:50 333 5 gusting 8 15.0
2018-Apr-22 16:45 327 3 gusting 8 15.0
2018-Apr-22 16:40 315 2 gusting 6 15.0
2018-Apr-22 16:35 303 2 gusting 6 15.0
2018-Apr-22 16:30 276 1 gusting 5 15.0
2018-Apr-22 16:25 270 1 gusting 5 15.0
2018-Apr-22 16:20 271 1 gusting 3 15.0
2018-Apr-22 16:15 275 1 gusting 3 15.0
2018-Apr-22 16:10 288 1 gusting 3 15.0
2018-Apr-22 16:05 302 1 gusting 4 15.0
2018-Apr-22 16:00 300 2 gusting 5 15.0
2018-Apr-22 15:55 304 2 gusting 6 15.0
2018-Apr-22 15:50 314 5 gusting 10 15.6
2018-Apr-22 15:45 323 5 gusting 10 15.6
2018-Apr-22 15:40 345 4 gusting 7 15.0
2018-Apr-22 15:35 352 5 gusting 7 15.6
2018-Apr-22 15:30 344 3 gusting 7 15.6
2018-Apr-22 15:25 324 2 gusting 6 15.6
2018-Apr-22 15:20 308 2 gusting 6 15.6
2018-Apr-22 15:15 306 2 gusting 7 15.6
2018-Apr-22 15:10 310 4 gusting 8 15.6
2018-Apr-22 15:05 314 4 gusting 8 15.6
2018-Apr-22 15:00 317 4 gusting 8 16.1
2018-Apr-22 14:55 315 3 gusting 8 16.1
2018-Apr-22 14:50 316 3 gusting 6 16.1
2018-Apr-22 14:45 322 4 gusting 7 16.1
2018-Apr-22 14:40 319 4 gusting 8 16.1
2018-Apr-22 14:35 310 3 gusting 8 16.1
2018-Apr-22 14:30 301 3 gusting 7 16.1
2018-Apr-22 14:25 299 3 gusting 7 16.1
2018-Apr-22 14:20 304 3 gusting 7 16.1
2018-Apr-22 14:15 307 3 gusting 6 16.1
2018-Apr-22 14:10 308 3 gusting 7 16.1
2018-Apr-22 14:05 308 3 gusting 7 16.1
2018-Apr-22 14:00 313 4 gusting 9 16.1
2018-Apr-22 13:55 318 5 gusting 9 15.6
2018-Apr-22 13:50 324 6 gusting 10 16.1
2018-Apr-22 13:45 320 5 gusting 10 16.1
2018-Apr-22 13:40 314 4 gusting 8 16.1
2018-Apr-22 13:35 321 3 gusting 8 16.1
2018-Apr-22 13:30 320 3 gusting 6 16.1
2018-Apr-22 13:25 308 2 gusting 6 16.1
2018-Apr-22 13:20 300 2 gusting 7 16.1
2018-Apr-22 13:15 305 3 gusting 7 16.1
2018-Apr-22 13:10 306 2 gusting 6 16.1
2018-Apr-22 13:05 304 2 gusting 6 16.1
2018-Apr-22 13:00 308 2 gusting 6 16.1
2018-Apr-22 12:55 310 2 gusting 6 16.1
2018-Apr-22 12:50 309 3 gusting 6 15.6
2018-Apr-22 12:45 311 4 gusting 8 15.6
2018-Apr-22 12:40 317 4 gusting 9 15.6
2018-Apr-22 12:35 310 3 gusting 9 15.6
2018-Apr-22 12:30 279 0 gusting 5 15.6
2018-Apr-22 12:25 243 0 gusting 3 15.6
2018-Apr-22 12:20 245 1 gusting 4 15.6
2018-Apr-22 12:15 231 1 gusting 5 15.6
2018-Apr-22 12:10 222 1 gusting 5 15.6
2018-Apr-22 12:05 239 1 gusting 4 15.6
2018-Apr-22 12:00 265 2 gusting 4 15.0
2018-Apr-22 11:55 275 1 gusting 3 15.6
2018-Apr-22 11:50 275 1 gusting 5 15.6
2018-Apr-22 11:45 289 1 gusting 5 15.6
2018-Apr-22 11:40 313 2 gusting 7 15.6
2018-Apr-22 11:35 314 3 gusting 7 15.6
2018-Apr-22 11:30 304 3 gusting 7 15.6
2018-Apr-22 11:25 297 2 gusting 7 15.6
2018-Apr-22 11:20 305 3 gusting 8 15.6
2018-Apr-22 11:15 308 3 gusting 8 15.6
2018-Apr-22 11:10 313 2 gusting 8 15.6
2018-Apr-22 11:05 317 2 gusting 6 15.6
2018-Apr-22 11:00 308 3 gusting 8 15.6
2018-Apr-22 10:55 306 2 gusting 8 15.6
2018-Apr-22 10:50 309 1 gusting 4 15.6
2018-Apr-22 10:45 300 1 gusting 6 15.0
2018-Apr-22 10:40 298 2 gusting 6 15.0
2018-Apr-22 10:35 303 2 gusting 6 15.6
2018-Apr-22 10:30 301 2 gusting 6 15.6
2018-Apr-22 10:25 296 1 gusting 6 15.6
2018-Apr-22 10:20 290 1 gusting 6 15.0
2018-Apr-22 10:15 256 2 gusting 6 15.6
2018-Apr-22 10:10 263 2 gusting 6 15.0
2018-Apr-22 10:05 273 1 gusting 6 15.0
2018-Apr-22 10:00 264 2 gusting 5 15.0
2018-Apr-22 09:55 265 2 gusting 6 14.4
2018-Apr-22 09:50 269 3 gusting 6 14.4
2018-Apr-22 09:45 272 2 gusting 6 14.4
2018-Apr-22 09:40 261 2 gusting 6 14.4
2018-Apr-22 09:35 249 2 gusting 6 14.4
2018-Apr-22 09:30 239 2 gusting 6 14.4
2018-Apr-22 09:25 242 3 gusting 6 14.4
2018-Apr-22 09:20 239 3 gusting 6 14.4
2018-Apr-22 09:15 234 3 gusting 6 13.9
2018-Apr-22 09:10 233 3 gusting 6 13.9
2018-Apr-22 09:05 236 2 gusting 6 13.9
2018-Apr-22 09:00 233 2 gusting 6 13.9
2018-Apr-22 08:55 225 2 gusting 5 13.9
2018-Apr-22 08:50 227 3 gusting 5 13.9
2018-Apr-22 08:45 223 3 gusting 5 13.9
2018-Apr-22 08:40 211 2 gusting 5 13.9
2018-Apr-22 08:35 200 1 gusting 4 13.9
2018-Apr-22 08:30 198 1 gusting 3 13.9
2018-Apr-22 08:25 213 2 gusting 6 13.9
2018-Apr-22 08:20 229 2 gusting 6 13.9
2018-Apr-22 08:15 249 2 gusting 6 13.9
2018-Apr-22 08:10 257 2 gusting 6 13.9
2018-Apr-22 08:05 255 2 gusting 6 13.9
2018-Apr-22 08:00 231 1 gusting 6 13.9
2018-Apr-22 07:55 208 2 gusting 6 13.9
2018-Apr-22 07:50 204 2 gusting 5 13.9
2018-Apr-22 07:45 202 2 gusting 5 13.9
2018-Apr-22 07:40 198 1 gusting 4 13.9
2018-Apr-22 07:35 208 2 gusting 5 13.9
2018-Apr-22 07:30 219 2 gusting 5 13.9
2018-Apr-22 07:25 224 1 gusting 4 13.9
2018-Apr-22 07:20 223 0 gusting 3 13.9
2018-Apr-22 07:15 240 1 gusting 5 13.9
2018-Apr-22 07:10 267 2 gusting 5 13.9
2018-Apr-22 07:05 260 2 gusting 5 13.3
2018-Apr-22 07:00 219 1 gusting 4 13.3
2018-Apr-22 06:55 206 1 gusting 3 13.3
2018-Apr-22 06:50 208 2 gusting 6 13.3
2018-Apr-22 06:45 208 3 gusting 6 13.3
2018-Apr-22 06:40 207 3 gusting 6 13.9
2018-Apr-22 06:35 212 3 gusting 6 13.9
2018-Apr-22 06:30 225 3 gusting 6 13.9
2018-Apr-22 06:25 241 3 gusting 7 13.9
2018-Apr-22 06:20 246 3 gusting 7 13.9
2018-Apr-22 06:15 240 2 gusting 6 13.9
2018-Apr-22 06:10 242 2 gusting 6 13.9
2018-Apr-22 06:05 261 2 gusting 6 13.9
2018-Apr-22 06:00 266 2 gusting 6 13.9
2018-Apr-22 05:55 264 3 gusting 7 13.9
2018-Apr-22 05:50 270 3 gusting 7 13.9
2018-Apr-22 05:45 267 2 gusting 6 13.9
2018-Apr-22 05:40 249 1 gusting 4 13.9
2018-Apr-22 05:35 241 1 gusting 3 13.9
2018-Apr-22 05:30 237 1 gusting 3 13.9
2018-Apr-22 05:25 240 2 gusting 3 13.9
2018-Apr-22 05:20 244 2 gusting 4 13.9
2018-Apr-22 05:15 248 1 gusting 4 13.9
2018-Apr-22 05:10 248 1 gusting 4 13.9
2018-Apr-22 05:05 246 1 gusting 4 13.3
2018-Apr-22 05:00 236 2 gusting 5 13.3
2018-Apr-22 04:55 226 2 gusting 6 13.3
2018-Apr-22 04:50 219 2 gusting 6 13.3
2018-Apr-22 04:45 214 3 gusting 6 13.3
2018-Apr-22 04:40 213 3 gusting 6 13.3
2018-Apr-22 04:35 241 2 gusting 5 13.3
2018-Apr-22 04:30 312 1 gusting 5 13.9
2018-Apr-22 04:25 319 3 gusting 7 13.9
2018-Apr-22 04:20 322 3 gusting 7 13.9
2018-Apr-22 04:15 324 1 gusting 6 13.9
2018-Apr-22 04:10 231 0 gusting 3 13.9
2018-Apr-22 04:05 173 0 gusting 2 13.9
2018-Apr-22 04:00 172 0 gusting 2 13.9
2018-Apr-22 03:55 172 0 gusting 2 13.9
2018-Apr-22 03:50 172 0 gusting 2 13.9
2018-Apr-22 03:45 172 1 gusting 2 13.9
2018-Apr-22 03:40 172 1 gusting 4 13.9
2018-Apr-22 03:35 172 1 gusting 4 13.9
2018-Apr-22 03:30 172 0 gusting 2 13.9
2018-Apr-22 03:25 172 0 gusting 2 13.9
2018-Apr-22 03:20 172 0 gusting 2 13.9
2018-Apr-22 03:15 172 0 gusting 4 13.9
2018-Apr-22 03:10 172 1 gusting 4 13.9
2018-Apr-22 03:05 172 1 gusting 4 13.9
2018-Apr-22 03:00 172 1 gusting 2 13.9
2018-Apr-22 02:55 172 1 gusting 4 13.9
2018-Apr-22 02:50 173 1 gusting 4 13.9
2018-Apr-22 02:45 172 1 gusting 4 13.9
2018-Apr-22 02:40 172 1 gusting 4 13.3
2018-Apr-22 02:35 172 1 gusting 6 13.3
2018-Apr-22 02:30 173 1 gusting 6 13.3
2018-Apr-22 02:25 172 1 gusting 4 13.3
2018-Apr-22 02:20 173 2 gusting 5 13.9
2018-Apr-22 02:15 172 2 gusting 5 13.3
2018-Apr-22 02:10 172 2 gusting 6 13.3
2018-Apr-22 02:05 173 3 gusting 6 13.3
2018-Apr-22 02:00 174 2 gusting 6 13.3
2018-Apr-22 01:55 175 2 gusting 5 13.3
2018-Apr-22 01:50 173 3 gusting 6 13.3
2018-Apr-22 01:45 174 3 gusting 6 13.3
2018-Apr-22 01:40 176 2 gusting 5 13.3
2018-Apr-22 01:35 176 1 gusting 4 13.3
2018-Apr-22 01:30 176 1 gusting 2 13.3
2018-Apr-22 01:25 176 1 gusting 3 13.3
2018-Apr-22 01:20 176 1 gusting 4 13.3
2018-Apr-22 01:15 176 1 gusting 4 13.3
2018-Apr-22 01:10 176 1 gusting 3 13.3
2018-Apr-22 01:05 176 1 gusting 3 13.3
2018-Apr-22 01:00 176 1 gusting 3 13.3
2018-Apr-22 00:55 176 1 gusting 3 13.3
2018-Apr-22 00:50 176 1 gusting 3 13.3
2018-Apr-22 00:45 176 1 gusting 4 13.3
2018-Apr-22 00:40 176 1 gusting 4 13.3
2018-Apr-22 00:35 184 2 gusting 5 13.3
2018-Apr-22 00:30 183 3 gusting 5 13.3
2018-Apr-22 00:25 181 2 gusting 5 13.3
2018-Apr-22 00:20 187 2 gusting 5 13.3
2018-Apr-22 00:15 199 2 gusting 4 13.3
2018-Apr-22 00:10 208 2 gusting 4 13.3
2018-Apr-22 00:05 211 2 gusting 3 13.3
2018-Apr-22 00:00 212 1 gusting 3 13.9
2018-Apr-21 23:55 212 0 gusting 2 13.9
2018-Apr-21 23:50 210 1 gusting 3 13.9
2018-Apr-21 23:45 214 2 gusting 4 13.9
2018-Apr-21 23:40 220 2 gusting 4 13.9
2018-Apr-21 23:35 223 2 gusting 4 13.9
2018-Apr-21 23:30 228 2 gusting 4 13.9
2018-Apr-21 23:25 234 2 gusting 5 13.9
2018-Apr-21 23:20 238 2 gusting 6 13.9
2018-Apr-21 23:15 239 2 gusting 6 13.9
2018-Apr-21 23:10 235 2 gusting 6 13.9
2018-Apr-21 23:05 232 3 gusting 6 13.9
2018-Apr-21 23:00 233 4 gusting 7 13.9
2018-Apr-21 22:55 235 4 gusting 7 13.9
2018-Apr-21 22:50 242 4 gusting 7 13.9
2018-Apr-21 22:45 250 3 gusting 7 13.9
2018-Apr-21 22:40 245 2 gusting 6 13.9
2018-Apr-21 22:35 234 1 gusting 6 13.9
2018-Apr-21 22:30 223 0 gusting 2 13.9
2018-Apr-21 22:25 224 13.9
2018-Apr-21 22:20 223 1 gusting 5 13.9
2018-Apr-21 22:15 223 2 gusting 5 13.9
2018-Apr-21 22:10 223 2 gusting 5 13.9
2018-Apr-21 22:05 222 2 gusting 5 13.9
2018-Apr-21 22:00 219 2 gusting 4 13.9
2018-Apr-21 21:55 223 3 gusting 5 13.9
2018-Apr-21 21:50 231 3 gusting 6 13.9
2018-Apr-21 21:45 239 3 gusting 6 13.9
2018-Apr-21 21:40 250 3 gusting 6 13.9
2018-Apr-21 21:35 259 2 gusting 6 13.9
2018-Apr-21 21:30 256 2 gusting 5 13.9
2018-Apr-21 21:25 234 2 gusting 6 13.9
2018-Apr-21 21:20 220 3 gusting 6 13.9
2018-Apr-21 21:15 209 3 gusting 6 13.9
2018-Apr-21 21:10 197 3 gusting 6 13.3
2018-Apr-21 21:05 198 3 gusting 6 13.3
2018-Apr-21 21:00 206 4 gusting 7 13.3
2018-Apr-21 20:55 211 5 gusting 8 13.9
2018-Apr-21 20:50 224 4 gusting 8 13.9
2018-Apr-21 20:45 236 4 gusting 8 13.9
2018-Apr-21 20:40 252 3 gusting 7 13.9
2018-Apr-21 20:35 284 2 gusting 6 13.9
2018-Apr-21 20:30 304 3 gusting 6 14.4
2018-Apr-21 20:25 297 2 gusting 6 14.4
2018-Apr-21 20:20 235 0 gusting 3 14.4
2018-Apr-21 20:15 230 0 gusting 3 14.4
2018-Apr-21 20:10 230 1 gusting 2 14.4
2018-Apr-21 20:05 240 1 gusting 3 14.4
2018-Apr-21 20:00 248 1 gusting 3 14.4
2018-Apr-21 19:55 249 1 gusting 3 14.4
2018-Apr-21 19:50 249 1 gusting 3 14.4
2018-Apr-21 19:45 244 2 gusting 5 14.4
2018-Apr-21 19:40 246 2 gusting 5 14.4
2018-Apr-21 19:35 247 2 gusting 5 14.4
2018-Apr-21 19:30 242 2 gusting 4 14.4
2018-Apr-21 19:25 239 2 gusting 5 14.4
2018-Apr-21 19:20 236 2 gusting 5 14.4
2018-Apr-21 19:15 233 2 gusting 5 14.4
2018-Apr-21 19:10 231 2 gusting 4 14.4
2018-Apr-21 19:05 230 2 gusting 4 14.4
2018-Apr-21 19:00 225 2 gusting 4 14.4
2018-Apr-21 18:55 230 2 gusting 4 15.0
2018-Apr-21 18:50 242 2 gusting 5 15.0
2018-Apr-21 18:45 253 2 gusting 5 15.0
2018-Apr-21 18:40 269 1 gusting 6 15.0
2018-Apr-21 18:35 261 2 gusting 6 15.0
2018-Apr-21 18:30 248 2 gusting 6 15.0
2018-Apr-21 18:25 238 3 gusting 6 15.0
2018-Apr-21 18:20 243 2 gusting 6 15.0
2018-Apr-21 18:15 258 2 gusting 5 15.0
2018-Apr-21 18:10 267 2 gusting 5 15.0
2018-Apr-21 18:05 271 2 gusting 6 15.0
2018-Apr-21 18:00 275 2 gusting 6 15.0
2018-Apr-21 17:55 277 3 gusting 8 15.0
2018-Apr-21 17:50 280 3 gusting 8 15.0
2018-Apr-21 17:45 287 3 gusting 7 15.0
2018-Apr-21 17:40 275 4 gusting 8 14.4
2018-Apr-21 17:35 255 4 gusting 8 14.4
2018-Apr-21 17:30 239 3 gusting 7 14.4
2018-Apr-21 17:25 236 2 gusting 6 14.4
2018-Apr-21 17:20 224 2 gusting 6 14.4
2018-Apr-21 17:15 227 3 gusting 6 14.4
2018-Apr-21 17:10 239 3 gusting 6 14.4
2018-Apr-21 17:05 247 4 gusting 9 14.4
2018-Apr-21 17:00 242 5 gusting 9 14.4
2018-Apr-21 16:55 229 5 gusting 9 14.4
2018-Apr-21 16:50 222 3 gusting 7 14.4
2018-Apr-21 16:45 224 2 gusting 5 14.4
2018-Apr-21 16:40 229 1 gusting 4 14.4
2018-Apr-21 16:35 225 1 gusting 3 14.4
2018-Apr-21 16:30 215 1 gusting 4 14.4
2018-Apr-21 16:25 211 1 gusting 6 14.4
2018-Apr-21 16:20 230 2 gusting 6 14.4
2018-Apr-21 16:15 268 1 gusting 5 14.4
2018-Apr-21 16:10 281 2 gusting 7 14.4
2018-Apr-21 16:05 286 4 gusting 8 14.4
2018-Apr-21 16:00 281 5 gusting 11 14.4
2018-Apr-21 15:55 269 4 gusting 11 14.4
2018-Apr-21 15:50 268 2 gusting 6 14.4
2018-Apr-21 15:45 278 1 gusting 6 14.4
2018-Apr-21 15:40 268 1 gusting 4 15.0
2018-Apr-21 15:35 245 1 gusting 4 14.4
2018-Apr-21 15:30 261 1 gusting 4 14.4
2018-Apr-21 15:25 319 0 gusting 3 14.4
2018-Apr-21 15:20 322 0 gusting 3 14.4
2018-Apr-21 15:15 325 0 gusting 3 14.4
2018-Apr-21 15:10 323 1 gusting 5 14.4
2018-Apr-21 15:05 322 3 gusting 9 14.4
2018-Apr-21 15:00 328 6 gusting 11 14.4
2018-Apr-21 14:55 328 5 gusting 11 15.0
2018-Apr-21 14:50 309 2 gusting 7 15.6
2018-Apr-21 14:45 294 2 gusting 9 15.6
2018-Apr-21 14:40 287 4 gusting 9 15.6
2018-Apr-21 14:35 292 4 gusting 8 15.0
2018-Apr-21 14:30 296 3 gusting 8 15.0
2018-Apr-21 14:25 294 3 gusting 7 15.0
2018-Apr-21 14:20 293 2 gusting 7 15.0
2018-Apr-21 14:15 272 2 gusting 6 15.0
2018-Apr-21 14:10 268 2 gusting 6 15.0
2018-Apr-21 14:05 275 2 gusting 6 15.0
2018-Apr-21 14:00 274 2 gusting 6 15.0
2018-Apr-21 13:55 270 3 gusting 6 15.0
2018-Apr-21 13:50 274 2 gusting 7 15.0
2018-Apr-21 13:45 296 2 gusting 7 14.4
2018-Apr-21 13:40 298 1 gusting 6 14.4
2018-Apr-21 13:35 293 0 gusting 2 14.4
2018-Apr-21 13:30 292 1 gusting 5 14.4
2018-Apr-21 13:25 305 2 gusting 6 14.4
2018-Apr-21 13:20 319 4 gusting 9 14.4
2018-Apr-21 13:15 319 5 gusting 10 15.0
2018-Apr-21 13:10 327 3 gusting 10 15.6
2018-Apr-21 13:05 356 1 gusting 3 15.0
2018-Apr-21 13:00 224 2 gusting 6 15.0
2018-Apr-21 12:55 207 3 gusting 6 15.0
2018-Apr-21 12:50 221 4 gusting 6 15.0
2018-Apr-21 12:45 245 3 gusting 6 15.0
2018-Apr-21 12:40 270 3 gusting 7 15.0
2018-Apr-21 12:35 303 4 gusting 9 15.0
2018-Apr-21 12:30 320 4 gusting 10 15.6
2018-Apr-21 12:25 351 3 gusting 10 15.6
2018-Apr-21 12:20 007 2 gusting 5 15.6
2018-Apr-21 12:15 331 2 gusting 3 16.1
2018-Apr-21 12:10 318 2 gusting 3 16.1
2018-Apr-21 12:05 292 1 gusting 3 16.1
2018-Apr-21 12:00 303 1 gusting 3 16.1
2018-Apr-21 11:55 324 1 gusting 3 15.6
2018-Apr-21 11:50 316 1 gusting 4 15.6
2018-Apr-21 11:45 312 2 gusting 6 15.6
2018-Apr-21 11:40 319 3 gusting 6 15.0
2018-Apr-21 11:35 322 2 gusting 6 15.0
2018-Apr-21 11:30 317 1 gusting 5 15.0
2018-Apr-21 11:25 291 0 gusting 5 15.0
2018-Apr-21 11:20 213 0 gusting 3 15.0
2018-Apr-21 11:15 247 1 gusting 3 14.4
2018-Apr-21 11:10 291 1 gusting 6 14.4
2018-Apr-21 11:05 285 3 gusting 12 14.4
2018-Apr-21 11:00 279 3 gusting 12 14.4
2018-Apr-21 10:55 261 1 gusting 4 14.4
2018-Apr-21 10:50 237 2 gusting 4 14.4
2018-Apr-21 10:45 222 3 gusting 6 14.4
2018-Apr-21 10:40 230 3 gusting 7 14.4
2018-Apr-21 10:35 254 4 gusting 7 14.4
2018-Apr-21 10:30 288 5 gusting 10 14.4
2018-Apr-21 10:25 311 5 gusting 10 14.4
2018-Apr-21 10:20 318 4 gusting 10 15.0
2018-Apr-21 10:15 307 2 gusting 10 15.6
2018-Apr-21 10:10 177 1 gusting 4 15.6
2018-Apr-21 10:05 195 1 gusting 4 15.6
2018-Apr-21 10:00 234 1 gusting 4 15.6
2018-Apr-21 09:55 258 1 gusting 3 15.0
2018-Apr-21 09:50 285 1 gusting 3 15.0
2018-Apr-21 09:45 300 1 gusting 4 15.0
2018-Apr-21 09:40 270 1 gusting 4 14.4
2018-Apr-21 09:35 238 0 gusting 2 14.4
2018-Apr-21 09:30 296 0 gusting 1 14.4
2018-Apr-21 09:25 295 14.4
2018-Apr-21 09:20 295 14.4
2018-Apr-21 09:15 295 14.4
2018-Apr-21 09:10 295 14.4
2018-Apr-21 09:05 295 13.9
2018-Apr-21 09:00 296 0 gusting 2 13.9
2018-Apr-21 08:55 296 0 gusting 2 13.9
2018-Apr-21 08:50 294 1 gusting 3 13.9
2018-Apr-21 08:45 279 1 gusting 4 13.3
2018-Apr-21 08:40 258 1 gusting 4 13.3
2018-Apr-21 08:35 249 0 gusting 3 13.3
2018-Apr-21 08:30 249 1 gusting 3 13.3
2018-Apr-21 08:25 246 1 gusting 3 12.8
2018-Apr-21 08:20 209 1 gusting 6 12.8
2018-Apr-21 08:15 195 1 gusting 6 12.8
2018-Apr-21 08:10 220 2 gusting 4 12.8
2018-Apr-21 08:05 251 2 gusting 8 12.8
2018-Apr-21 08:00 281 4 gusting 10 12.8
2018-Apr-21 07:55 293 4 gusting 10 12.8
2018-Apr-21 07:50 259 2 gusting 9 12.8
2018-Apr-21 07:45 171 1 gusting 4 12.8
2018-Apr-21 07:40 171 1 gusting 4 12.8
2018-Apr-21 07:35 171 1 gusting 4 12.8
2018-Apr-21 07:30 171 2 gusting 5 12.8
2018-Apr-21 07:25 178 2 gusting 5 12.8
2018-Apr-21 07:20 198 1 gusting 5 12.8
2018-Apr-21 07:15 220 0 gusting 3 12.2
2018-Apr-21 07:10 223 0 gusting 2 12.2
2018-Apr-21 07:05 223 0 gusting 3 12.2
2018-Apr-21 07:00 222 1 gusting 4 12.2
2018-Apr-21 06:55 220 1 gusting 4 12.2
2018-Apr-21 06:50 216 1 gusting 4 12.2
2018-Apr-21 06:45 208 1 gusting 4 12.2
2018-Apr-21 06:40 203 2 gusting 5 12.2
2018-Apr-21 06:35 207 2 gusting 5 12.2
2018-Apr-21 06:30 205 2 gusting 6 11.7
2018-Apr-21 06:25 189 3 gusting 9 11.7
2018-Apr-21 06:20 181 3 gusting 9 11.7
2018-Apr-21 06:15 192 2 gusting 6 11.7
2018-Apr-21 06:10 208 2 gusting 7 12.2
2018-Apr-21 06:05 232 2 gusting 7 12.2
2018-Apr-21 06:00 234 3 gusting 6 12.2
2018-Apr-21 05:55 210 2 gusting 6 12.2
2018-Apr-21 05:50 195 2 gusting 5 12.2
2018-Apr-21 05:45 208 1 gusting 5 12.8
2018-Apr-21 05:40 254 1 gusting 3 12.8
2018-Apr-21 05:35 303 2 gusting 6 12.8
2018-Apr-21 05:30 296 2 gusting 6 12.8
2018-Apr-21 05:25 261 3 gusting 6 12.2
2018-Apr-21 05:20 197 2 gusting 6 12.2
2018-Apr-21 05:15 172 2 gusting 4 12.2
2018-Apr-21 05:10 169 1 gusting 5 12.2
2018-Apr-21 05:05 168 2 gusting 6 12.2
2018-Apr-21 05:00 162 4 gusting 6 12.2
2018-Apr-21 04:55 158 4 gusting 6 12.2
2018-Apr-21 04:50 159 4 gusting 6 11.7
2018-Apr-21 04:45 162 4 gusting 6 11.7
2018-Apr-21 04:40 167 3 gusting 6 11.7
2018-Apr-21 04:35 176 2 gusting 6 11.7
2018-Apr-21 04:30 178 2 gusting 6 11.7
2018-Apr-21 04:25 178 3 gusting 6 11.7
2018-Apr-21 04:20 178 2 gusting 6 11.7
2018-Apr-21 04:15 175 3 gusting 6 11.7
2018-Apr-21 04:10 174 3 gusting 7 11.7
2018-Apr-21 04:05 173 3 gusting 7 12.2
2018-Apr-21 04:00 172 2 gusting 6 12.2
2018-Apr-21 03:55 173 2 gusting 6 12.2
2018-Apr-21 03:50 188 2 gusting 6 12.2
2018-Apr-21 03:45 205 1 gusting 3 12.8
2018-Apr-21 03:40 224 1 gusting 3 12.2
2018-Apr-21 03:35 263 1 gusting 5 12.2
2018-Apr-21 03:30 263 1 gusting 6 12.2
2018-Apr-21 03:25 231 3 gusting 7 12.2
2018-Apr-21 03:20 197 3 gusting 7 11.7
2018-Apr-21 03:15 175 3 gusting 6 11.7
2018-Apr-21 03:10 174 4 gusting 6 11.7
2018-Apr-21 03:05 176 4 gusting 8 11.7
2018-Apr-21 03:00 176 4 gusting 8 11.7
2018-Apr-21 02:55 175 4 gusting 8 11.7
2018-Apr-21 02:50 176 3 gusting 8 11.7
2018-Apr-21 02:45 178 3 gusting 8 11.7
2018-Apr-21 02:40 184 4 gusting 8 11.1
2018-Apr-21 02:35 184 4 gusting 9 11.1
2018-Apr-21 02:30 177 4 gusting 9 11.1
2018-Apr-21 02:25 173 4 gusting 8 11.1
2018-Apr-21 02:20 171 5 gusting 8 11.1
2018-Apr-21 02:15 172 5 gusting 8 11.1
2018-Apr-21 02:10 174 4 gusting 6 11.1
2018-Apr-21 02:05 175 3 gusting 6 11.1
2018-Apr-21 02:00 178 3 gusting 6 11.7
2018-Apr-21 01:55 176 3 gusting 6 11.7
2018-Apr-21 01:50 177 2 gusting 6 11.7
2018-Apr-21 01:45 183 2 gusting 5 11.7
2018-Apr-21 01:40 185 2 gusting 6 11.7
2018-Apr-21 01:35 188 2 gusting 6 11.7
2018-Apr-21 01:30 184 2 gusting 6 11.7
2018-Apr-21 01:25 182 2 gusting 6 11.7
2018-Apr-21 01:20 177 3 gusting 7 11.7
2018-Apr-21 01:15 174 4 gusting 7 11.1
2018-Apr-21 01:10 173 4 gusting 8 11.1
2018-Apr-21 01:05 176 4 gusting 8 11.1
2018-Apr-21 01:00 179 4 gusting 7 11.7
2018-Apr-21 00:55 179 3 gusting 6 11.7
2018-Apr-21 00:50 181 2 gusting 6 11.7
2018-Apr-21 00:45 176 2 gusting 8 11.7
2018-Apr-21 00:40 175 3 gusting 8 11.7
2018-Apr-21 00:35 172 3 gusting 6 11.7
2018-Apr-21 00:30 171 3 gusting 6 11.7
2018-Apr-21 00:25 174 2 gusting 6 11.7
2018-Apr-21 00:20 174 2 gusting 5 11.7
2018-Apr-21 00:15 171 3 gusting 6 12.2
2018-Apr-21 00:10 176 3 gusting 6 12.2
2018-Apr-21 00:05 206 2 gusting 6 12.2
2018-Apr-21 00:00 246 2 gusting 5 12.8
2018-Apr-20 23:55 259 1 gusting 5 12.8
2018-Apr-20 23:50 259 1 gusting 6 12.8
2018-Apr-20 23:45 235 1 gusting 6 12.2
2018-Apr-20 23:40 206 0 gusting 3 12.2
2018-Apr-20 23:35 202 0 gusting 2 12.2
2018-Apr-20 23:30 208 1 gusting 6 12.2
2018-Apr-20 23:25 211 2 gusting 6 12.2
2018-Apr-20 23:20 209 2 gusting 6 11.7
2018-Apr-20 23:15 197 2 gusting 5 11.7
2018-Apr-20 23:10 187 2 gusting 6 11.7
2018-Apr-20 23:05 184 3 gusting 6 11.7
2018-Apr-20 22:55 186 3 gusting 7 12.2
2018-Apr-20 22:50 194 2 gusting 5 12.2
2018-Apr-20 22:45 198 2 gusting 6 12.2
2018-Apr-20 22:40 197 2 gusting 6 12.2
2018-Apr-20 22:35 194 2 gusting 6 12.2
2018-Apr-20 22:30 189 2 gusting 6 12.2
2018-Apr-20 22:25 184 2 gusting 6 12.2
2018-Apr-20 22:20 173 3 gusting 6 12.2
2018-Apr-20 22:15 175 3 gusting 6 12.2
2018-Apr-20 22:10 201 2 gusting 6 12.8
2018-Apr-20 22:05 229 2 gusting 6 12.8
2018-Apr-20 22:00 242 3 gusting 8 12.8
2018-Apr-20 21:55 231 3 gusting 8 13.3
2018-Apr-20 21:50 224 3 gusting 6 13.3
2018-Apr-20 21:45 227 4 gusting 6 13.3
2018-Apr-20 21:40 225 4 gusting 7 13.3
2018-Apr-20 21:35 223 3 gusting 7 13.3
2018-Apr-20 21:30 214 4 gusting 8 13.3
2018-Apr-20 21:25 203 4 gusting 8 12.8
2018-Apr-20 21:20 200 4 gusting 8 12.8
2018-Apr-20 21:15 202 5 gusting 9 13.3
2018-Apr-20 21:10 206 5 gusting 9 13.3
2018-Apr-20 21:05 211 5 gusting 7 13.3
2018-Apr-20 21:00 213 4 gusting 8 13.3
2018-Apr-20 20:55 215 4 gusting 8 13.3
2018-Apr-20 20:50 217 3 gusting 6 13.3
2018-Apr-20 20:45 222 3 gusting 6 13.3
2018-Apr-20 20:40 230 2 gusting 6 13.3
2018-Apr-20 20:35 242 1 gusting 5 13.3
2018-Apr-20 20:30 243 2 gusting 4 13.3
2018-Apr-20 20:25 237 2 gusting 4 13.9
2018-Apr-20 20:20 232 1 gusting 4 13.9
2018-Apr-20 20:15 229 1 gusting 3 13.9
2018-Apr-20 20:10 231 1 gusting 3 13.9
2018-Apr-20 20:05 261 1 gusting 3 13.9
2018-Apr-20 20:00 296 0 gusting 2 13.9
2018-Apr-20 19:55 296 1 gusting 3 13.9
2018-Apr-20 19:50 296 1 gusting 3 13.9
2018-Apr-20 19:45 297 1 gusting 3 13.9
2018-Apr-20 19:40 299 0 gusting 3 13.9
2018-Apr-20 19:35 308 1 gusting 4 13.9
2018-Apr-20 19:30 309 2 gusting 6 14.4
2018-Apr-20 19:25 308 2 gusting 6 14.4
2018-Apr-20 19:20 311 2 gusting 6 14.4
2018-Apr-20 19:15 309 3 gusting 7 14.4
2018-Apr-20 19:10 311 4 gusting 9 14.4
2018-Apr-20 19:05 319 5 gusting 11 14.4
2018-Apr-20 19:00 326 4 gusting 11 14.4
2018-Apr-20 18:55 328 4 gusting 9 14.4
2018-Apr-20 18:50 324 6 gusting 10 14.4
2018-Apr-20 18:45 329 6 gusting 12 14.4
2018-Apr-20 18:40 332 6 gusting 12 14.4
2018-Apr-20 18:35 323 5 gusting 9 14.4
2018-Apr-20 18:30 311 4 gusting 9 14.4
2018-Apr-20 18:25 304 4 gusting 9 14.4
2018-Apr-20 18:20 300 4 gusting 10 14.4
2018-Apr-20 18:15 294 4 gusting 10 14.4
2018-Apr-20 18:10 301 4 gusting 10 15.0
2018-Apr-20 18:05 308 5 gusting 10 15.0
2018-Apr-20 18:00 302 4 gusting 10 15.0
2018-Apr-20 17:55 305 3 gusting 8 14.4
2018-Apr-20 17:50 307 3 gusting 8 15.0
2018-Apr-20 17:45 307 3 gusting 8 15.0
2018-Apr-20 17:40 305 3 gusting 8 15.0
2018-Apr-20 17:35 300 3 gusting 7 15.0
2018-Apr-20 17:30 288 3 gusting 8 15.0
2018-Apr-20 17:25 286 3 gusting 8 14.4
2018-Apr-20 17:20 286 3 gusting 7 14.4
2018-Apr-20 17:15 285 3 gusting 7 14.4
2018-Apr-20 17:10 290 4 gusting 11 14.4
2018-Apr-20 17:05 281 3 gusting 11 14.4
2018-Apr-20 17:00 275 2 gusting 9 14.4